Time,TemperatureF,DewpointF,PressureIn,WindDirection,WindDirectionDegrees,WindSpeedMPH,WindSpeedGustMPH,Humidity,HourlyPrecipIn,Conditions,Clouds,dailyrainin,SolarRadiationWatts/m^2,SoftwareType,DateUTC
2013-02-25 00:01:00,25.0,13.0,-100.00,West,261,7.0,14.0,61,0.00,,,0.01,0.000000,,2013-02-25 07:01:00,
2013-02-25 00:32:00,26.0,14.0,-100.00,WSW,239,7.0,12.0,59,0.00,,,0.01,0.000000,,2013-02-25 07:32:00,
2013-02-25 00:42:00,26.0,14.0,-100.00,WSW,239,7.0,12.0,59,0.00,,,0.01,0.000000,,2013-02-25 07:42:00,
2013-02-25 00:52:00,26.0,14.0,-100.00,WSW,239,7.0,12.0,59,0.00,,,0.01,0.000000,,2013-02-25 07:52:00,
2013-02-25 01:01:00,26.0,14.0,-100.00,WSW,239,7.0,12.0,59,0.00,,,0.01,0.000000,,2013-02-25 08:01:00,
2013-02-25 01:32:00,25.0,12.0,-100.00,WSW,238,4.0,11.0,58,0.00,,,0.01,0.000000,,2013-02-25 08:32:00,
2013-02-25 01:42:00,25.0,12.0,-100.00,WSW,238,4.0,11.0,58,0.00,,,0.01,0.000000,,2013-02-25 08:42:00,
2013-02-25 01:52:00,25.0,12.0,-100.00,WSW,238,4.0,11.0,58,0.00,,,0.01,0.000000,,2013-02-25 08:52:00,
2013-02-25 02:01:00,25.0,12.0,-100.00,WSW,238,4.0,11.0,58,0.00,,,0.01,0.000000,,2013-02-25 09:01:00,
2013-02-25 02:32:00,23.0,12.0,-100.00,SE,127,6.0,9.0,61,0.00,,,0.01,0.000000,,2013-02-25 09:32:00,
2013-02-25 02:42:00,23.0,12.0,-100.00,SE,127,6.0,9.0,61,0.00,,,0.01,0.000000,,2013-02-25 09:42:00,
2013-02-25 02:52:00,23.0,12.0,-100.00,SE,127,6.0,9.0,61,0.00,,,0.01,0.000000,,2013-02-25 09:52:00,
2013-02-25 03:01:00,23.0,12.0,-100.00,SE,127,6.0,9.0,61,0.00,,,0.01,0.000000,,2013-02-25 10:01:00,
2013-02-25 03:32:00,22.0,12.0,-100.00,ESE,118,6.0,10.0,64,0.00,,,0.01,0.000000,,2013-02-25 10:32:00,
2013-02-25 03:42:00,22.0,12.0,-100.00,ESE,118,6.0,10.0,64,0.00,,,0.01,0.000000,,2013-02-25 10:42:00,
2013-02-25 03:52:00,22.0,12.0,-100.00,ESE,118,6.0,10.0,64,0.00,,,0.01,0.000000,,2013-02-25 10:52:00,
2013-02-25 04:01:00,22.0,12.0,-100.00,ESE,118,6.0,10.0,64,0.00,,,0.01,0.000000,,2013-02-25 11:01:00,
2013-02-25 04:32:00,23.0,13.0,-100.00,SE,139,4.0,9.0,64,0.00,,,0.01,0.000000,,2013-02-25 11:32:00,
2013-02-25 04:42:00,23.0,13.0,-100.00,SE,139,4.0,9.0,64,0.00,,,0.01,0.000000,,2013-02-25 11:42:00,
2013-02-25 04:52:00,23.0,13.0,-100.00,SE,139,4.0,9.0,64,0.00,,,0.01,0.000000,,2013-02-25 11:52:00,
2013-02-25 05:01:00,23.0,13.0,-100.00,SE,139,4.0,9.0,64,0.00,,,0.01,0.000000,,2013-02-25 12:01:00,
2013-02-25 05:32:00,20.0,11.0,-100.00,SE,134,7.0,10.0,67,0.00,,,0.01,0.000000,,2013-02-25 12:32:00,
2013-02-25 05:42:00,20.0,11.0,-100.00,SE,134,7.0,10.0,67,0.00,,,0.01,0.000000,,2013-02-25 12:42:00,
2013-02-25 05:55:00,20.0,11.0,-100.00,SE,134,7.0,10.0,67,0.00,,,0.01,0.000000,,2013-02-25 12:55:00,
2013-02-25 06:01:00,20.0,11.0,-100.00,SE,134,7.0,10.0,67,0.00,,,0.01,0.000000,,2013-02-25 13:01:00,
2013-02-25 06:32:00,22.0,12.0,-100.00,SE,134,5.0,8.0,65,0.00,,,0.01,0.000000,,2013-02-25 13:32:00,
2013-02-25 06:42:00,22.0,12.0,-100.00,SE,134,5.0,8.0,65,0.00,,,0.01,0.000000,,2013-02-25 13:42:00,
2013-02-25 06:52:00,22.0,12.0,-100.00,SE,134,5.0,8.0,65,0.00,,,0.01,0.000000,,2013-02-25 13:52:00,
2013-02-25 07:02:00,22.0,12.0,-100.00,SE,134,5.0,8.0,65,0.00,,,0.01,0.000000,,2013-02-25 14:02:00,
2013-02-25 07:32:00,22.0,12.0,-100.00,SE,139,5.0,8.0,65,0.00,,,0.01,0.000000,,2013-02-25 14:32:00,
2013-02-25 07:42:00,22.0,12.0,-100.00,SE,139,5.0,8.0,65,0.00,,,0.01,0.000000,,2013-02-25 14:42:00,
2013-02-25 07:52:00,22.0,12.0,-100.00,SE,139,5.0,8.0,65,0.00,,,0.01,0.000000,,2013-02-25 14:52:00,
2013-02-25 08:02:00,22.0,12.0,-100.00,SE,139,5.0,8.0,65,0.00,,,0.01,0.000000,,2013-02-25 15:02:00,
2013-02-25 08:32:00,24.0,14.0,-100.00,SE,142,4.0,11.0,65,0.00,,,0.01,15.000000,,2013-02-25 15:32:00,
2013-02-25 08:42:00,24.0,14.0,-100.00,SE,142,4.0,11.0,65,0.00,,,0.01,15.000000,,2013-02-25 15:42:00,
2013-02-25 08:52:00,24.0,14.0,-100.00,SE,142,4.0,11.0,65,0.00,,,0.01,15.000000,,2013-02-25 15:52:00,
2013-02-25 09:01:00,24.0,14.0,-100.00,SE,142,4.0,11.0,65,0.00,,,0.01,15.000000,,2013-02-25 16:01:00,
2013-02-25 09:32:00,26.0,14.0,-100.00,SSE,156,4.0,9.0,59,0.00,,,0.01,103.000000,,2013-02-25 16:32:00,
2013-02-25 09:42:00,26.0,14.0,-100.00,SSE,156,4.0,9.0,59,0.00,,,0.01,103.000000,,2013-02-25 16:42:00,
2013-02-25 09:52:00,26.0,14.0,-100.00,SSE,156,4.0,9.0,59,0.00,,,0.01,103.000000,,2013-02-25 16:52:00,
2013-02-25 10:01:00,26.0,14.0,-100.00,SSE,156,4.0,9.0,59,0.00,,,0.01,103.000000,,2013-02-25 17:01:00,
2013-02-25 10:32:00,29.0,17.0,-100.00,West,268,8.0,16.0,61,0.00,,,0.01,174.000000,,2013-02-25 17:32:00,
2013-02-25 10:42:00,29.0,17.0,-100.00,West,268,8.0,16.0,61,0.00,,,0.01,174.000000,,2013-02-25 17:42:00,
2013-02-25 10:52:00,29.0,17.0,-100.00,West,268,8.0,16.0,61,0.00,,,0.01,174.000000,,2013-02-25 17:52:00,
2013-02-25 11:01:00,29.0,17.0,-100.00,West,268,8.0,16.0,61,0.00,,,0.01,174.000000,,2013-02-25 18:01:00,
2013-02-25 11:33:00,28.0,19.0,-100.00,ESE,108,2.0,9.0,69,0.00,,,0.01,180.000000,,2013-02-25 18:33:00,
2013-02-25 11:42:00,28.0,19.0,-100.00,ESE,108,2.0,9.0,69,0.00,,,0.01,180.000000,,2013-02-25 18:42:00,
2013-02-25 11:52:00,28.0,19.0,-100.00,ESE,108,2.0,9.0,69,0.00,,,0.01,180.000000,,2013-02-25 18:52:00,
2013-02-25 12:01:00,28.0,19.0,-100.00,ESE,108,2.0,9.0,69,0.00,,,0.01,180.000000,,2013-02-25 19:01:00,
2013-02-25 12:32:00,27.0,23.0,-100.00,SW,216,4.0,11.0,85,0.01,,,0.02,130.000000,,2013-02-25 19:32:00,
2013-02-25 12:42:00,27.0,23.0,-100.00,SW,216,4.0,11.0,85,0.01,,,0.02,130.000000,,2013-02-25 19:42:00,
2013-02-25 12:52:00,27.0,23.0,-100.00,SW,216,4.0,11.0,85,0.01,,,0.02,130.000000,,2013-02-25 19:52:00,
2013-02-25 13:01:00,27.0,23.0,-100.00,SW,216,4.0,11.0,85,0.01,,,0.02,130.000000,,2013-02-25 20:01:00,
2013-02-25 13:32:00,29.0,24.0,-100.00,North,358,4.0,12.0,82,0.02,,,0.04,122.000000,,2013-02-25 20:32:00,
2013-02-25 13:42:00,29.0,24.0,-100.00,North,358,4.0,12.0,82,0.02,,,0.04,122.000000,,2013-02-25 20:42:00,
2013-02-25 13:52:00,29.0,24.0,-100.00,North,358,4.0,12.0,82,0.02,,,0.04,122.000000,,2013-02-25 20:52:00,
2013-02-25 14:01:00,29.0,24.0,-100.00,North,358,4.0,12.0,82,0.02,,,0.04,122.000000,,2013-02-25 21:01:00,
2013-02-25 14:32:00,29.0,19.0,-100.00,NW,317,7.0,19.0,66,0.00,,,0.04,138.000000,,2013-02-25 21:32:00,
2013-02-25 14:42:00,29.0,19.0,-100.00,NW,317,7.0,19.0,66,0.00,,,0.04,138.000000,,2013-02-25 21:42:00,
2013-02-25 14:52:00,29.0,19.0,-100.00,NW,317,7.0,19.0,66,0.00,,,0.04,138.000000,,2013-02-25 21:52:00,
2013-02-25 15:01:00,29.0,19.0,-100.00,NW,317,7.0,19.0,66,0.00,,,0.04,138.000000,,2013-02-25 22:01:00,
2013-02-25 15:32:00,29.0,18.0,-100.00,WSW,255,10.0,21.0,63,0.01,,,0.04,154.000000,,2013-02-25 22:32:00,
2013-02-25 15:42:00,29.0,18.0,-100.00,WSW,255,10.0,21.0,63,0.01,,,0.04,154.000000,,2013-02-25 22:42:00,
2013-02-25 15:52:00,29.0,18.0,-100.00,WSW,255,10.0,21.0,63,0.01,,,0.04,154.000000,,2013-02-25 22:52:00,
2013-02-25 16:01:00,29.0,18.0,-100.00,WSW,255,10.0,21.0,63,0.01,,,0.04,154.000000,,2013-02-25 23:01:00,
2013-02-25 16:32:00,31.0,14.0,-100.00,West,264,8.0,17.0,49,0.00,,,0.04,324.000000,,2013-02-25 23:32:00,
2013-02-25 16:42:00,31.0,14.0,-100.00,West,264,8.0,17.0,49,0.00,,,0.04,324.000000,,2013-02-25 23:42:00,
2013-02-25 16:52:00,31.0,14.0,-100.00,West,264,8.0,17.0,49,0.00,,,0.04,324.000000,,2013-02-25 23:52:00,
2013-02-25 17:01:00,31.0,14.0,-100.00,West,264,8.0,17.0,49,0.00,,,0.04,324.000000,,2013-02-26 00:01:00,
2013-02-25 17:32:00,28.0,10.0,-100.00,WNW,282,6.0,22.0,46,0.00,,,0.04,212.000000,,2013-02-26 00:32:00,
2013-02-25 17:42:00,28.0,10.0,-100.00,WNW,282,6.0,22.0,46,0.00,,,0.04,212.000000,,2013-02-26 00:42:00,
2013-02-25 17:52:00,28.0,10.0,-100.00,WNW,282,6.0,22.0,46,0.00,,,0.04,212.000000,,2013-02-26 00:52:00,
2013-02-25 18:01:00,28.0,10.0,-100.00,WNW,282,6.0,22.0,46,0.00,,,0.04,212.000000,,2013-02-26 01:01:00,
2013-02-25 18:32:00,24.0,17.0,-100.00,West,275,12.0,19.0,73,0.00,,,0.04,33.000000,,2013-02-26 01:32:00,
2013-02-25 18:42:00,24.0,17.0,-100.00,West,275,12.0,19.0,73,0.00,,,0.04,33.000000,,2013-02-26 01:42:00,
2013-02-25 18:52:00,24.0,17.0,-100.00,West,275,12.0,19.0,73,0.00,,,0.04,33.000000,,2013-02-26 01:52:00,
2013-02-25 19:01:00,24.0,17.0,-100.00,West,275,12.0,19.0,73,0.00,,,0.04,33.000000,,2013-02-26 02:01:00,
2013-02-25 19:32:00,23.0,21.0,-100.00,West,277,6.0,18.0,90,0.00,,,0.04,0.000000,,2013-02-26 02:32:00,
2013-02-25 19:42:00,23.0,21.0,-100.00,West,277,6.0,18.0,90,0.00,,,0.04,0.000000,,2013-02-26 02:42:00,
2013-02-25 19:52:00,23.0,21.0,-100.00,West,277,6.0,18.0,90,0.00,,,0.04,0.000000,,2013-02-26 02:52:00,
2013-02-25 20:01:00,23.0,21.0,-100.00,West,277,6.0,18.0,90,0.00,,,0.04,0.000000,,2013-02-26 03:01:00,
2013-02-25 20:32:00,22.0,20.0,-100.00,NW,314,4.0,11.0,90,0.00,,,0.04,0.000000,,2013-02-26 03:32:00,
2013-02-25 20:42:00,22.0,20.0,-100.00,NW,314,4.0,11.0,90,0.00,,,0.04,0.000000,,2013-02-26 03:42:00,
2013-02-25 20:52:00,22.0,20.0,-100.00,NW,314,4.0,11.0,90,0.00,,,0.04,0.000000,,2013-02-26 03:52:00,
2013-02-25 21:01:00,22.0,20.0,-100.00,NW,314,4.0,11.0,90,0.00,,,0.04,0.000000,,2013-02-26 04:01:00,
2013-02-25 21:32:00,22.0,20.0,-100.00,WSW,252,5.0,16.0,90,0.00,,,0.04,0.000000,,2013-02-26 04:32:00,
2013-02-25 21:42:00,22.0,20.0,-100.00,WSW,252,5.0,16.0,90,0.00,,,0.04,0.000000,,2013-02-26 04:42:00,
2013-02-25 21:52:00,22.0,20.0,-100.00,WSW,252,5.0,16.0,90,0.00,,,0.04,0.000000,,2013-02-26 04:52:00,
2013-02-25 22:01:00,22.0,20.0,-100.00,WSW,252,5.0,16.0,90,0.00,,,0.04,0.000000,,2013-02-26 05:01:00,
2013-02-25 22:32:00,21.0,18.0,-100.00,SW,221,4.0,14.0,88,0.00,,,0.04,0.000000,,2013-02-26 05:32:00,
2013-02-25 22:43:00,21.0,18.0,-100.00,SW,221,4.0,14.0,88,0.00,,,0.04,0.000000,,2013-02-26 05:43:00,
2013-02-25 22:52:00,21.0,18.0,-100.00,SW,221,4.0,14.0,88,0.00,,,0.04,0.000000,,2013-02-26 05:52:00,
2013-02-25 23:01:00,21.0,18.0,-100.00,SW,221,4.0,14.0,88,0.00,,,0.04,0.000000,,2013-02-26 06:01:00,
2013-02-25 23:32:00,21.0,18.0,-100.00,West,265,8.0,20.0,88,0.00,,,0.04,0.000000,,2013-02-26 06:32:00,
2013-02-25 23:42:00,21.0,18.0,-100.00,West,265,8.0,20.0,88,0.00,,,0.04,0.000000,,2013-02-26 06:42:00,
2013-02-25 23:52:00,21.0,18.0,-100.00,West,265,8.0,20.0,88,0.00,,,0.04,0.000000,,2013-02-26 06:52:00,